Ana Sayfa
METAR-TAF:

METAR-TAF

Havaalanları :

Pecos, Teksas, Amerika Birleşik Devletleri

Enlem: 31-22-56N, Boylam: 103-30-38W, yükseklik: 796 m

Güncel hava durumu gözlemi

Rapor saat 18:35 UTC de 29 dakika önce yapıldı.
Rüzgar doğu/güneydoğudan 11 kt ve 17 kt'a kadar ani rüzgarlar
Sıcaklık 28°C
Nem 28%
Basınç 1021 hPa
Görüş mesafesi: 16.1 km
Açık gökyüzü

METAR: KPEQ 311835Z AUTO 11011G17KT 10SM CLR 28/08 A3015 RMK AO2 T02770081

Saat: 14:04 (19:04 UTC)

Tahmin

Rapor saat 17:20 UTC de 1 saat ve 44 dakika önce yapıldı.
Ayın 31'si saat 18 UTC'den ayın 01'si saat 18 UTC'ye kadar geçerli Tahmin
Rüzgar doğu/güneydoğudan 12 kt
Görüş mesafesi: 10 km
25000 ft yükseklikte az bulutlu

TAF: KPEQ 311720Z 3118/0118 11012KT P6SM FEW250

4.000'den fazla havaalanı için hava durumu gözlemleri ve tahminleri (METAR ve TAF raporları).

Kullanılabilir istasyonlar harita üzerinde sarı ve kırmızı noktalarla gösterilir.

İstasyonun adını görmek için fareyi noktanın üzerinde gezdirin.

Sonrasında hava gözlem ve tahminlerini görmek için tıklayın.

Haritayı değiştirmek için: yaklaştırmak için siyah artı işaretli yeşil düğmeye ve uzaklaştırmak için de eksi işaretli düğmeye hızla tıklayın; bitişik haritalar için yeşil okları kullanın.


METAR-TAF: